sensor_id;sensor_type;location;lat;lon;timestamp;P1;durP1;ratioP1;P2;durP2;ratioP2
26113;SDS011;13966;48.828;9.064;2022-10-16T00:00:32;3.63;;;1.45;;
26113;SDS011;13966;48.828;9.064;2022-10-16T00:02:58;1.73;;;1.00;;
26113;SDS011;13966;48.828;9.064;2022-10-16T00:05:24;3.42;;;1.15;;
26113;SDS011;13966;48.828;9.064;2022-10-16T00:07:50;6.75;;;1.23;;
26113;SDS011;13966;48.828;9.064;2022-10-16T00:10:16;4.57;;;1.63;;
26113;SDS011;13966;48.828;9.064;2022-10-16T00:12:42;3.22;;;1.20;;
26113;SDS011;13966;48.828;9.064;2022-10-16T00:15:09;3.78;;;1.80;;
26113;SDS011;13966;48.828;9.064;2022-10-16T00:17:35;1.45;;;1.17;;
26113;SDS011;13966;48.828;9.064;2022-10-16T00:20:01;3.53;;;1.50;;
26113;SDS011;13966;48.828;9.064;2022-10-16T00:22:27;1.85;;;1.38;;
26113;SDS011;13966;48.828;9.064;2022-10-16T00:24:53;4.63;;;1.73;;
26113;SDS011;13966;48.828;9.064;2022-10-16T00:27:19;3.28;;;1.50;;
26113;SDS011;13966;48.828;9.064;2022-10-16T00:29:49;1.83;;;1.23;;
26113;SDS011;13966;48.828;9.064;2022-10-16T00:32:16;1.80;;;1.40;;
26113;SDS011;13966;48.828;9.064;2022-10-16T00:34:42;3.42;;;1.70;;
26113;SDS011;13966;48.828;9.064;2022-10-16T00:37:08;1.70;;;1.08;;
26113;SDS011;13966;48.828;9.064;2022-10-16T00:39:37;5.00;;;1.63;;
26113;SDS011;13966;48.828;9.064;2022-10-16T00:42:03;1.30;;;1.10;;
26113;SDS011;13966;48.828;9.064;2022-10-16T00:44:42;1.95;;;1.13;;
26113;SDS011;13966;48.828;9.064;2022-10-16T00:47:09;3.03;;;1.20;;
26113;SDS011;13966;48.828;9.064;2022-10-16T00:49:37;6.55;;;1.63;;
26113;SDS011;13966;48.828;9.064;2022-10-16T00:52:03;1.67;;;1.10;;
26113;SDS011;13966;48.828;9.064;2022-10-16T00:54:31;4.22;;;1.48;;
26113;SDS011;13966;48.828;9.064;2022-10-16T00:56:59;2.00;;;1.13;;
26113;SDS011;13966;48.828;9.064;2022-10-16T01:01:53;3.63;;;1.40;;
26113;SDS011;13966;48.828;9.064;2022-10-16T01:04:19;4.03;;;1.50;;
26113;SDS011;13966;48.828;9.064;2022-10-16T01:06:51;3.53;;;1.27;;
26113;SDS011;13966;48.828;9.064;2022-10-16T01:09:27;3.35;;;1.58;;
26113;SDS011;13966;48.828;9.064;2022-10-16T01:14:32;3.20;;;1.30;;
26113;SDS011;13966;48.828;9.064;2022-10-16T01:17:03;1.80;;;1.27;;
26113;SDS011;13966;48.828;9.064;2022-10-16T01:19:35;2.50;;;1.30;;
26113;SDS011;13966;48.828;9.064;2022-10-16T01:22:04;3.22;;;1.33;;
26113;SDS011;13966;48.828;9.064;2022-10-16T01:24:41;2.97;;;1.58;;
26113;SDS011;13966;48.828;9.064;2022-10-16T01:29:48;3.03;;;1.30;;
26113;SDS011;13966;48.828;9.064;2022-10-16T01:32:16;1.90;;;1.20;;
26113;SDS011;13966;48.828;9.064;2022-10-16T01:35:07;1.33;;;1.20;;
26113;SDS011;13966;48.828;9.064;2022-10-16T01:39:58;3.53;;;1.63;;
26113;SDS011;13966;48.828;9.064;2022-10-16T01:42:26;1.25;;;1.10;;
26113;SDS011;13966;48.828;9.064;2022-10-16T01:44:54;2.72;;;1.60;;
26113;SDS011;13966;48.828;9.064;2022-10-16T01:47:22;2.10;;;1.48;;
26113;SDS011;13966;48.828;9.064;2022-10-16T01:49:49;2.85;;;1.45;;
26113;SDS011;13966;48.828;9.064;2022-10-16T01:52:17;3.50;;;1.55;;
26113;SDS011;13966;48.828;9.064;2022-10-16T01:54:45;2.70;;;1.70;;
26113;SDS011;13966;48.828;9.064;2022-10-16T01:57:13;4.97;;;1.80;;
26113;SDS011;13966;48.828;9.064;2022-10-16T01:59:45;4.93;;;1.50;;
26113;SDS011;13966;48.828;9.064;2022-10-16T02:02:13;1.30;;;1.20;;
26113;SDS011;13966;48.828;9.064;2022-10-16T02:07:06;2.05;;;1.80;;
26113;SDS011;13966;48.828;9.064;2022-10-16T02:09:33;2.72;;;1.50;;
26113;SDS011;13966;48.828;9.064;2022-10-16T02:12:00;4.75;;;1.77;;
26113;SDS011;13966;48.828;9.064;2022-10-16T02:14:28;3.22;;;1.42;;
26113;SDS011;13966;48.828;9.064;2022-10-16T02:16:54;2.47;;;1.60;;
26113;SDS011;13966;48.828;9.064;2022-10-16T02:19:20;4.00;;;1.88;;
26113;SDS011;13966;48.828;9.064;2022-10-16T02:22:02;1.83;;;1.73;;
26113;SDS011;13966;48.828;9.064;2022-10-16T02:24:33;3.80;;;1.90;;
26113;SDS011;13966;48.828;9.064;2022-10-16T02:27:03;1.85;;;1.30;;
26113;SDS011;13966;48.828;9.064;2022-10-16T02:29:33;3.08;;;1.30;;
26113;SDS011;13966;48.828;9.064;2022-10-16T02:32:00;2.83;;;1.50;;
26113;SDS011;13966;48.828;9.064;2022-10-16T02:34:27;3.47;;;1.60;;
26113;SDS011;13966;48.828;9.064;2022-10-16T02:36:55;3.15;;;1.50;;
26113;SDS011;13966;48.828;9.064;2022-10-16T02:39:22;3.40;;;1.75;;
26113;SDS011;13966;48.828;9.064;2022-10-16T02:41:49;7.38;;;1.55;;
26113;SDS011;13966;48.828;9.064;2022-10-16T02:44:15;3.53;;;1.30;;
26113;SDS011;13966;48.828;9.064;2022-10-16T02:46:41;3.08;;;1.35;;
26113;SDS011;13966;48.828;9.064;2022-10-16T02:49:07;4.28;;;1.60;;
26113;SDS011;13966;48.828;9.064;2022-10-16T02:51:33;2.92;;;1.38;;
26113;SDS011;13966;48.828;9.064;2022-10-16T02:53:59;3.00;;;1.13;;
26113;SDS011;13966;48.828;9.064;2022-10-16T02:56:25;1.98;;;1.40;;
26113;SDS011;13966;48.828;9.064;2022-10-16T02:58:51;2.45;;;1.40;;
26113;SDS011;13966;48.828;9.064;2022-10-16T03:01:17;1.88;;;1.40;;
26113;SDS011;13966;48.828;9.064;2022-10-16T03:03:43;2.60;;;1.52;;
26113;SDS011;13966;48.828;9.064;2022-10-16T03:06:09;4.40;;;1.60;;
26113;SDS011;13966;48.828;9.064;2022-10-16T03:08:35;9.15;;;1.75;;
26113;SDS011;13966;48.828;9.064;2022-10-16T03:11:01;4.28;;;1.85;;
26113;SDS011;13966;48.828;9.064;2022-10-16T03:13:27;3.58;;;1.58;;
26113;SDS011;13966;48.828;9.064;2022-10-16T03:15:53;4.00;;;1.27;;
26113;SDS011;13966;48.828;9.064;2022-10-16T03:18:19;2.30;;;1.52;;
26113;SDS011;13966;48.828;9.064;2022-10-16T03:20:45;3.20;;;1.60;;
26113;SDS011;13966;48.828;9.064;2022-10-16T03:23:11;3.33;;;1.63;;
26113;SDS011;13966;48.828;9.064;2022-10-16T03:25:37;3.50;;;1.50;;
26113;SDS011;13966;48.828;9.064;2022-10-16T03:28:03;3.30;;;1.50;;
26113;SDS011;13966;48.828;9.064;2022-10-16T03:30:29;3.75;;;1.60;;
26113;SDS011;13966;48.828;9.064;2022-10-16T03:32:56;1.48;;;1.30;;
26113;SDS011;13966;48.828;9.064;2022-10-16T03:35:22;4.40;;;1.67;;
26113;SDS011;13966;48.828;9.064;2022-10-16T03:37:48;3.00;;;1.35;;
26113;SDS011;13966;48.828;9.064;2022-10-16T03:40:15;2.85;;;1.48;;
26113;SDS011;13966;48.828;9.064;2022-10-16T03:42:44;2.90;;;1.30;;
26113;SDS011;13966;48.828;9.064;2022-10-16T03:45:10;3.67;;;1.90;;
26113;SDS011;13966;48.828;9.064;2022-10-16T03:47:36;4.00;;;1.30;;
26113;SDS011;13966;48.828;9.064;2022-10-16T03:50:03;3.63;;;1.58;;
26113;SDS011;13966;48.828;9.064;2022-10-16T03:52:29;3.00;;;1.30;;
26113;SDS011;13966;48.828;9.064;2022-10-16T03:54:57;3.42;;;1.33;;
26113;SDS011;13966;48.828;9.064;2022-10-16T03:57:23;4.00;;;1.48;;
26113;SDS011;13966;48.828;9.064;2022-10-16T03:59:49;2.65;;;1.30;;
26113;SDS011;13966;48.828;9.064;2022-10-16T04:02:15;2.88;;;1.40;;
26113;SDS011;13966;48.828;9.064;2022-10-16T04:04:41;2.85;;;1.20;;
26113;SDS011;13966;48.828;9.064;2022-10-16T04:07:08;2.75;;;1.42;;
26113;SDS011;13966;48.828;9.064;2022-10-16T04:09:34;1.30;;;1.20;;
26113;SDS011;13966;48.828;9.064;2022-10-16T04:12:00;3.80;;;1.20;;
26113;SDS011;13966;48.828;9.064;2022-10-16T04:14:26;2.67;;;1.55;;
26113;SDS011;13966;48.828;9.064;2022-10-16T04:16:52;1.13;;;1.00;;
26113;SDS011;13966;48.828;9.064;2022-10-16T04:19:18;5.13;;;1.50;;
26113;SDS011;13966;48.828;9.064;2022-10-16T04:21:44;5.03;;;1.60;;
26113;SDS011;13966;48.828;9.064;2022-10-16T04:24:10;2.00;;;1.65;;
26113;SDS011;13966;48.828;9.064;2022-10-16T04:26:36;3.60;;;1.50;;
26113;SDS011;13966;48.828;9.064;2022-10-16T04:29:02;4.20;;;1.92;;
26113;SDS011;13966;48.828;9.064;2022-10-16T04:31:28;5.00;;;1.33;;
26113;SDS011;13966;48.828;9.064;2022-10-16T04:33:54;5.78;;;1.17;;
26113;SDS011;13966;48.828;9.064;2022-10-16T04:36:21;2.80;;;1.30;;
26113;SDS011;13966;48.828;9.064;2022-10-16T04:38:47;1.83;;;1.23;;
26113;SDS011;13966;48.828;9.064;2022-10-16T04:41:13;2.38;;;1.30;;
26113;SDS011;13966;48.828;9.064;2022-10-16T04:43:39;3.78;;;1.27;;
26113;SDS011;13966;48.828;9.064;2022-10-16T04:46:05;2.83;;;1.48;;
26113;SDS011;13966;48.828;9.064;2022-10-16T04:48:31;2.50;;;1.30;;
26113;SDS011;13966;48.828;9.064;2022-10-16T04:50:57;3.17;;;1.48;;
26113;SDS011;13966;48.828;9.064;2022-10-16T04:53:23;2.47;;;1.30;;
26113;SDS011;13966;48.828;9.064;2022-10-16T04:55:49;1.63;;;1.15;;
26113;SDS011;13966;48.828;9.064;2022-10-16T04:58:16;2.30;;;1.55;;
26113;SDS011;13966;48.828;9.064;2022-10-16T05:00:42;3.03;;;1.67;;
26113;SDS011;13966;48.828;9.064;2022-10-16T05:03:09;2.72;;;1.13;;
26113;SDS011;13966;48.828;9.064;2022-10-16T05:05:36;5.32;;;1.45;;
26113;SDS011;13966;48.828;9.064;2022-10-16T05:08:02;3.90;;;1.20;;
26113;SDS011;13966;48.828;9.064;2022-10-16T05:10:28;3.97;;;1.40;;
26113;SDS011;13966;48.828;9.064;2022-10-16T05:12:54;3.30;;;1.58;;
26113;SDS011;13966;48.828;9.064;2022-10-16T05:15:21;7.18;;;1.45;;
26113;SDS011;13966;48.828;9.064;2022-10-16T05:17:51;5.43;;;1.65;;
26113;SDS011;13966;48.828;9.064;2022-10-16T05:20:17;6.03;;;1.55;;
26113;SDS011;13966;48.828;9.064;2022-10-16T05:22:43;3.20;;;1.17;;
26113;SDS011;13966;48.828;9.064;2022-10-16T05:25:09;5.22;;;1.42;;
26113;SDS011;13966;48.828;9.064;2022-10-16T05:27:35;8.02;;;1.23;;
26113;SDS011;13966;48.828;9.064;2022-10-16T05:30:02;3.17;;;1.15;;
26113;SDS011;13966;48.828;9.064;2022-10-16T05:32:28;2.22;;;1.55;;
26113;SDS011;13966;48.828;9.064;2022-10-16T05:34:54;4.00;;;1.20;;
26113;SDS011;13966;48.828;9.064;2022-10-16T05:37:20;3.00;;;1.42;;
26113;SDS011;13966;48.828;9.064;2022-10-16T05:39:46;7.97;;;1.63;;
26113;SDS011;13966;48.828;9.064;2022-10-16T05:42:12;3.85;;;1.50;;
26113;SDS011;13966;48.828;9.064;2022-10-16T05:44:38;2.75;;;1.40;;
26113;SDS011;13966;48.828;9.064;2022-10-16T05:47:04;2.65;;;1.20;;
26113;SDS011;13966;48.828;9.064;2022-10-16T05:49:30;2.47;;;1.60;;
26113;SDS011;13966;48.828;9.064;2022-10-16T05:51:56;6.28;;;1.50;;
26113;SDS011;13966;48.828;9.064;2022-10-16T05:54:22;2.78;;;1.20;;
26113;SDS011;13966;48.828;9.064;2022-10-16T05:56:48;2.30;;;1.25;;
26113;SDS011;13966;48.828;9.064;2022-10-16T05:59:14;1.60;;;1.30;;
26113;SDS011;13966;48.828;9.064;2022-10-16T06:01:40;2.45;;;1.20;;
26113;SDS011;13966;48.828;9.064;2022-10-16T06:04:07;2.05;;;1.38;;
26113;SDS011;13966;48.828;9.064;2022-10-16T06:06:33;4.25;;;1.42;;
26113;SDS011;13966;48.828;9.064;2022-10-16T06:09:01;4.53;;;1.33;;
26113;SDS011;13966;48.828;9.064;2022-10-16T06:11:28;1.92;;;1.40;;
26113;SDS011;13966;48.828;9.064;2022-10-16T06:13:55;1.90;;;1.30;;
26113;SDS011;13966;48.828;9.064;2022-10-16T06:16:22;2.13;;;1.40;;
26113;SDS011;13966;48.828;9.064;2022-10-16T06:18:50;4.50;;;1.25;;
26113;SDS011;13966;48.828;9.064;2022-10-16T06:21:17;3.20;;;1.48;;
26113;SDS011;13966;48.828;9.064;2022-10-16T06:23:43;2.22;;;1.60;;
26113;SDS011;13966;48.828;9.064;2022-10-16T06:26:11;1.77;;;1.50;;
26113;SDS011;13966;48.828;9.064;2022-10-16T06:28:38;2.40;;;1.38;;
26113;SDS011;13966;48.828;9.064;2022-10-16T06:31:04;4.57;;;1.38;;
26113;SDS011;13966;48.828;9.064;2022-10-16T06:33:30;3.15;;;1.30;;
26113;SDS011;13966;48.828;9.064;2022-10-16T06:36:04;5.93;;;1.60;;
26113;SDS011;13966;48.828;9.064;2022-10-16T06:38:30;2.60;;;1.90;;
26113;SDS011;13966;48.828;9.064;2022-10-16T06:40:57;3.22;;;1.67;;
26113;SDS011;13966;48.828;9.064;2022-10-16T06:43:23;5.10;;;2.15;;
26113;SDS011;13966;48.828;9.064;2022-10-16T06:45:50;4.72;;;2.15;;
26113;SDS011;13966;48.828;9.064;2022-10-16T06:48:16;4.15;;;1.92;;
26113;SDS011;13966;48.828;9.064;2022-10-16T06:50:42;5.28;;;2.30;;
26113;SDS011;13966;48.828;9.064;2022-10-16T06:53:08;3.08;;;1.58;;
26113;SDS011;13966;48.828;9.064;2022-10-16T06:55:34;4.30;;;1.88;;
26113;SDS011;13966;48.828;9.064;2022-10-16T06:58:00;2.90;;;1.42;;
26113;SDS011;13966;48.828;9.064;2022-10-16T07:00:26;4.53;;;1.40;;
26113;SDS011;13966;48.828;9.064;2022-10-16T07:02:52;5.38;;;1.45;;
26113;SDS011;13966;48.828;9.064;2022-10-16T07:05:18;4.65;;;1.33;;
26113;SDS011;13966;48.828;9.064;2022-10-16T07:07:44;3.72;;;1.40;;
26113;SDS011;13966;48.828;9.064;2022-10-16T07:10:10;3.25;;;1.40;;
26113;SDS011;13966;48.828;9.064;2022-10-16T07:12:36;6.38;;;1.65;;
26113;SDS011;13966;48.828;9.064;2022-10-16T07:15:02;6.22;;;1.42;;
26113;SDS011;13966;48.828;9.064;2022-10-16T07:17:28;4.97;;;1.85;;
26113;SDS011;13966;48.828;9.064;2022-10-16T07:19:54;3.13;;;2.10;;
26113;SDS011;13966;48.828;9.064;2022-10-16T07:22:20;4.30;;;2.30;;
26113;SDS011;13966;48.828;9.064;2022-10-16T07:24:47;3.67;;;1.80;;
26113;SDS011;13966;48.828;9.064;2022-10-16T07:27:13;2.08;;;1.30;;
26113;SDS011;13966;48.828;9.064;2022-10-16T07:29:40;3.00;;;1.42;;
26113;SDS011;13966;48.828;9.064;2022-10-16T07:32:06;5.25;;;1.88;;
26113;SDS011;13966;48.828;9.064;2022-10-16T07:34:32;5.45;;;1.60;;
26113;SDS011;13966;48.828;9.064;2022-10-16T07:36:58;1.95;;;1.30;;
26113;SDS011;13966;48.828;9.064;2022-10-16T07:39:24;2.05;;;1.27;;
26113;SDS011;13966;48.828;9.064;2022-10-16T07:41:50;5.15;;;1.38;;
26113;SDS011;13966;48.828;9.064;2022-10-16T07:44:16;4.53;;;1.42;;
26113;SDS011;13966;48.828;9.064;2022-10-16T07:46:42;1.58;;;1.20;;
26113;SDS011;13966;48.828;9.064;2022-10-16T07:49:08;4.72;;;1.85;;
26113;SDS011;13966;48.828;9.064;2022-10-16T07:51:35;4.22;;;1.17;;
26113;SDS011;13966;48.828;9.064;2022-10-16T07:54:03;2.50;;;1.10;;
26113;SDS011;13966;48.828;9.064;2022-10-16T07:56:30;2.08;;;1.30;;
26113;SDS011;13966;48.828;9.064;2022-10-16T07:58:56;2.58;;;1.15;;
26113;SDS011;13966;48.828;9.064;2022-10-16T08:01:22;3.78;;;1.25;;
26113;SDS011;13966;48.828;9.064;2022-10-16T08:03:49;7.45;;;1.23;;
26113;SDS011;13966;48.828;9.064;2022-10-16T08:06:16;5.38;;;1.30;;
26113;SDS011;13966;48.828;9.064;2022-10-16T08:08:43;4.40;;;1.45;;
26113;SDS011;13966;48.828;9.064;2022-10-16T08:11:09;5.40;;;1.20;;
26113;SDS011;13966;48.828;9.064;2022-10-16T08:13:35;2.15;;;1.20;;
26113;SDS011;13966;48.828;9.064;2022-10-16T08:16:01;3.83;;;1.20;;
26113;SDS011;13966;48.828;9.064;2022-10-16T08:18:28;3.92;;;1.20;;
26113;SDS011;13966;48.828;9.064;2022-10-16T08:20:55;2.38;;;1.00;;
26113;SDS011;13966;48.828;9.064;2022-10-16T08:23:22;4.63;;;1.30;;
26113;SDS011;13966;48.828;9.064;2022-10-16T08:25:48;2.53;;;1.50;;
26113;SDS011;13966;48.828;9.064;2022-10-16T08:28:14;3.97;;;2.40;;
26113;SDS011;13966;48.828;9.064;2022-10-16T08:30:41;5.38;;;2.90;;
26113;SDS011;13966;48.828;9.064;2022-10-16T08:33:07;5.47;;;3.03;;
26113;SDS011;13966;48.828;9.064;2022-10-16T08:35:33;2.55;;;1.85;;
26113;SDS011;13966;48.828;9.064;2022-10-16T08:37:59;3.10;;;1.80;;
26113;SDS011;13966;48.828;9.064;2022-10-16T08:40:27;5.93;;;1.75;;
26113;SDS011;13966;48.828;9.064;2022-10-16T08:50:51;4.45;;;1.48;;
26113;SDS011;13966;48.828;9.064;2022-10-16T08:53:20;4.03;;;1.52;;
26113;SDS011;13966;48.828;9.064;2022-10-16T08:55:49;2.50;;;1.48;;
26113;SDS011;13966;48.828;9.064;2022-10-16T08:58:16;3.55;;;1.25;;
26113;SDS011;13966;48.828;9.064;2022-10-16T09:00:44;3.88;;;1.30;;
26113;SDS011;13966;48.828;9.064;2022-10-16T09:05:44;2.55;;;1.00;;
26113;SDS011;13966;48.828;9.064;2022-10-16T09:10:58;2.40;;;1.38;;
26113;SDS011;13966;48.828;9.064;2022-10-16T09:13:31;3.35;;;1.05;;
26113;SDS011;13966;48.828;9.064;2022-10-16T09:18:41;4.55;;;1.25;;
26113;SDS011;13966;48.828;9.064;2022-10-16T09:21:22;2.05;;;1.08;;
26113;SDS011;13966;48.828;9.064;2022-10-16T09:23:49;4.57;;;1.20;;
26113;SDS011;13966;48.828;9.064;2022-10-16T09:26:16;1.58;;;1.05;;
26113;SDS011;13966;48.828;9.064;2022-10-16T09:28:44;2.05;;;1.08;;
26113;SDS011;13966;48.828;9.064;2022-10-16T09:31:16;3.47;;;1.30;;
26113;SDS011;13966;48.828;9.064;2022-10-16T09:33:43;3.75;;;1.00;;
26113;SDS011;13966;48.828;9.064;2022-10-16T09:36:10;4.82;;;1.02;;
26113;SDS011;13966;48.828;9.064;2022-10-16T09:38:36;2.10;;;1.05;;
26113;SDS011;13966;48.828;9.064;2022-10-16T09:41:23;3.22;;;1.10;;
26113;SDS011;13966;48.828;9.064;2022-10-16T09:48:49;4.95;;;1.20;;
26113;SDS011;13966;48.828;9.064;2022-10-16T09:51:32;7.93;;;1.30;;
26113;SDS011;13966;48.828;9.064;2022-10-16T09:54:00;2.70;;;1.05;;
26113;SDS011;13966;48.828;9.064;2022-10-16T09:58:57;5.15;;;1.10;;
26113;SDS011;13966;48.828;9.064;2022-10-16T10:03:49;5.47;;;0.85;;
26113;SDS011;13966;48.828;9.064;2022-10-16T10:06:24;3.22;;;1.13;;
26113;SDS011;13966;48.828;9.064;2022-10-16T10:11:38;3.50;;;1.45;;
26113;SDS011;13966;48.828;9.064;2022-10-16T10:14:05;6.22;;;1.20;;
26113;SDS011;13966;48.828;9.064;2022-10-16T10:16:32;3.50;;;1.23;;
26113;SDS011;13966;48.828;9.064;2022-10-16T10:19:00;4.43;;;1.00;;
26113;SDS011;13966;48.828;9.064;2022-10-16T10:21:26;3.42;;;1.00;;
26113;SDS011;13966;48.828;9.064;2022-10-16T10:23:55;5.15;;;1.17;;
26113;SDS011;13966;48.828;9.064;2022-10-16T10:26:23;1.30;;;1.00;;
26113;SDS011;13966;48.828;9.064;2022-10-16T10:31:26;3.53;;;1.15;;
26113;SDS011;13966;48.828;9.064;2022-10-16T10:33:58;1.27;;;0.98;;
26113;SDS011;13966;48.828;9.064;2022-10-16T10:38:57;3.42;;;1.15;;
26113;SDS011;13966;48.828;9.064;2022-10-16T10:46:35;3.65;;;1.17;;
26113;SDS011;13966;48.828;9.064;2022-10-16T10:49:10;2.25;;;1.00;;
26113;SDS011;13966;48.828;9.064;2022-10-16T10:56:50;1.80;;;0.95;;
26113;SDS011;13966;48.828;9.064;2022-10-16T10:59:42;6.68;;;1.40;;
26113;SDS011;13966;48.828;9.064;2022-10-16T11:07:04;1.15;;;0.70;;
26113;SDS011;13966;48.828;9.064;2022-10-16T11:09:31;1.45;;;1.00;;
26113;SDS011;13966;48.828;9.064;2022-10-16T11:12:21;1.60;;;1.00;;
26113;SDS011;13966;48.828;9.064;2022-10-16T11:15:29;3.05;;;0.90;;
26113;SDS011;13966;48.828;9.064;2022-10-16T11:17:38;3.45;;;1.30;;
26113;SDS011;13966;48.828;9.064;2022-10-16T11:20:12;2.15;;;0.98;;
26113;SDS011;13966;48.828;9.064;2022-10-16T11:22:50;1.77;;;1.00;;
26113;SDS011;13966;48.828;9.064;2022-10-16T11:30:20;5.07;;;1.15;;
26113;SDS011;13966;48.828;9.064;2022-10-16T11:32:52;1.13;;;0.88;;
26113;SDS011;13966;48.828;9.064;2022-10-16T11:38:01;2.03;;;0.90;;
26113;SDS011;13966;48.828;9.064;2022-10-16T11:40:29;1.30;;;1.05;;
26113;SDS011;13966;48.828;9.064;2022-10-16T11:43:00;4.25;;;1.00;;
26113;SDS011;13966;48.828;9.064;2022-10-16T11:45:39;1.20;;;0.80;;
26113;SDS011;13966;48.828;9.064;2022-10-16T11:48:08;1.27;;;0.90;;
26113;SDS011;13966;48.828;9.064;2022-10-16T11:50:50;2.60;;;0.75;;
26113;SDS011;13966;48.828;9.064;2022-10-16T11:53:23;2.13;;;0.70;;
26113;SDS011;13966;48.828;9.064;2022-10-16T11:55:50;1.50;;;0.77;;
26113;SDS011;13966;48.828;9.064;2022-10-16T12:00:47;4.07;;;0.93;;
26113;SDS011;13966;48.828;9.064;2022-10-16T12:03:22;4.65;;;0.60;;
26113;SDS011;13966;48.828;9.064;2022-10-16T12:05:55;3.33;;;0.80;;
26113;SDS011;13966;48.828;9.064;2022-10-16T12:08:24;1.15;;;0.70;;
26113;SDS011;13966;48.828;9.064;2022-10-16T12:10:50;2.25;;;0.80;;
26113;SDS011;13966;48.828;9.064;2022-10-16T12:13:37;1.23;;;0.60;;
26113;SDS011;13966;48.828;9.064;2022-10-16T12:18:39;2.08;;;1.00;;
26113;SDS011;13966;48.828;9.064;2022-10-16T12:21:05;1.38;;;0.93;;
26113;SDS011;13966;48.828;9.064;2022-10-16T12:23:52;1.25;;;0.65;;
26113;SDS011;13966;48.828;9.064;2022-10-16T12:26:25;0.98;;;0.60;;
26113;SDS011;13966;48.828;9.064;2022-10-16T12:28:52;2.60;;;1.20;;
26113;SDS011;13966;48.828;9.064;2022-10-16T12:31:18;2.03;;;0.85;;
26113;SDS011;13966;48.828;9.064;2022-10-16T12:33:56;1.73;;;0.77;;
26113;SDS011;13966;48.828;9.064;2022-10-16T12:36:27;4.25;;;1.00;;
26113;SDS011;13966;48.828;9.064;2022-10-16T12:38:53;2.03;;;1.13;;
26113;SDS011;13966;48.828;9.064;2022-10-16T12:41:38;1.88;;;0.98;;
26113;SDS011;13966;48.828;9.064;2022-10-16T12:44:05;1.40;;;0.88;;
26113;SDS011;13966;48.828;9.064;2022-10-16T12:49:05;1.75;;;0.90;;
26113;SDS011;13966;48.828;9.064;2022-10-16T12:53:58;1.75;;;1.10;;
26113;SDS011;13966;48.828;9.064;2022-10-16T12:56:49;3.50;;;0.82;;
26113;SDS011;13966;48.828;9.064;2022-10-16T13:04:34;4.20;;;1.10;;
26113;SDS011;13966;48.828;9.064;2022-10-16T13:07:15;1.67;;;0.70;;
26113;SDS011;13966;48.828;9.064;2022-10-16T13:10:50;2.13;;;0.80;;
26113;SDS011;13966;48.828;9.064;2022-10-16T13:17:52;2.08;;;0.70;;
26113;SDS011;13966;48.828;9.064;2022-10-16T13:23:04;2.63;;;1.90;;
26113;SDS011;13966;48.828;9.064;2022-10-16T13:28:01;2.25;;;0.80;;
26113;SDS011;13966;48.828;9.064;2022-10-16T13:30:28;1.70;;;0.82;;
26113;SDS011;13966;48.828;9.064;2022-10-16T13:32:58;2.20;;;0.88;;
26113;SDS011;13966;48.828;9.064;2022-10-16T13:35:26;2.47;;;0.90;;
26113;SDS011;13966;48.828;9.064;2022-10-16T13:38:03;2.63;;;0.80;;
26113;SDS011;13966;48.828;9.064;2022-10-16T13:40:29;1.02;;;0.88;;
26113;SDS011;13966;48.828;9.064;2022-10-16T13:42:55;3.53;;;0.85;;
26113;SDS011;13966;48.828;9.064;2022-10-16T13:45:22;1.10;;;0.68;;
26113;SDS011;13966;48.828;9.064;2022-10-16T13:47:48;1.08;;;0.70;;
26113;SDS011;13966;48.828;9.064;2022-10-16T13:50:16;0.98;;;0.70;;
26113;SDS011;13966;48.828;9.064;2022-10-16T13:52:42;4.38;;;0.80;;
26113;SDS011;13966;48.828;9.064;2022-10-16T13:57:38;4.47;;;0.85;;
26113;SDS011;13966;48.828;9.064;2022-10-16T14:00:16;1.05;;;0.70;;
26113;SDS011;13966;48.828;9.064;2022-10-16T14:02:43;1.33;;;0.80;;
26113;SDS011;13966;48.828;9.064;2022-10-16T14:05:09;1.23;;;0.98;;
26113;SDS011;13966;48.828;9.064;2022-10-16T14:07:35;3.35;;;0.95;;
26113;SDS011;13966;48.828;9.064;2022-10-16T14:10:06;2.78;;;0.80;;
26113;SDS011;13966;48.828;9.064;2022-10-16T14:12:33;1.83;;;0.85;;
26113;SDS011;13966;48.828;9.064;2022-10-16T14:14:59;2.53;;;1.00;;
26113;SDS011;13966;48.828;9.064;2022-10-16T14:17:27;1.88;;;1.00;;
26113;SDS011;13966;48.828;9.064;2022-10-16T14:19:54;1.10;;;0.85;;
26113;SDS011;13966;48.828;9.064;2022-10-16T14:24:47;3.50;;;1.58;;
26113;SDS011;13966;48.828;9.064;2022-10-16T14:30:16;0.90;;;0.80;;
26113;SDS011;13966;48.828;9.064;2022-10-16T14:32:52;3.22;;;1.20;;
26113;SDS011;13966;48.828;9.064;2022-10-16T14:35:23;2.15;;;1.13;;
26113;SDS011;13966;48.828;9.064;2022-10-16T14:37:55;4.15;;;1.20;;
26113;SDS011;13966;48.828;9.064;2022-10-16T14:40:26;1.65;;;1.10;;
26113;SDS011;13966;48.828;9.064;2022-10-16T14:42:52;2.40;;;1.10;;
26113;SDS011;13966;48.828;9.064;2022-10-16T14:45:23;1.48;;;1.20;;
26113;SDS011;13966;48.828;9.064;2022-10-16T14:47:51;3.95;;;1.00;;
26113;SDS011;13966;48.828;9.064;2022-10-16T14:50:18;1.50;;;1.20;;
26113;SDS011;13966;48.828;9.064;2022-10-16T14:52:44;4.63;;;1.30;;
26113;SDS011;13966;48.828;9.064;2022-10-16T14:55:10;1.58;;;1.10;;
26113;SDS011;13966;48.828;9.064;2022-10-16T14:57:36;4.45;;;1.20;;
26113;SDS011;13966;48.828;9.064;2022-10-16T15:00:08;1.98;;;1.30;;
26113;SDS011;13966;48.828;9.064;2022-10-16T15:02:36;1.58;;;1.13;;
26113;SDS011;13966;48.828;9.064;2022-10-16T15:05:10;2.25;;;0.98;;
26113;SDS011;13966;48.828;9.064;2022-10-16T15:07:37;1.73;;;1.08;;
26113;SDS011;13966;48.828;9.064;2022-10-16T15:10:03;3.95;;;1.08;;
26113;SDS011;13966;48.828;9.064;2022-10-16T15:12:29;2.33;;;1.20;;
26113;SDS011;13966;48.828;9.064;2022-10-16T15:14:56;3.72;;;1.50;;
26113;SDS011;13966;48.828;9.064;2022-10-16T15:17:22;7.05;;;1.20;;
26113;SDS011;13966;48.828;9.064;2022-10-16T15:19:48;4.05;;;1.52;;
26113;SDS011;13966;48.828;9.064;2022-10-16T15:22:14;3.75;;;1.20;;
26113;SDS011;13966;48.828;9.064;2022-10-16T15:24:40;4.00;;;1.23;;
26113;SDS011;13966;48.828;9.064;2022-10-16T15:27:06;2.92;;;1.20;;
26113;SDS011;13966;48.828;9.064;2022-10-16T15:29:32;1.90;;;1.35;;
26113;SDS011;13966;48.828;9.064;2022-10-16T15:31:58;4.13;;;1.35;;
26113;SDS011;13966;48.828;9.064;2022-10-16T15:34:24;4.40;;;1.52;;
26113;SDS011;13966;48.828;9.064;2022-10-16T15:36:50;2.30;;;1.45;;
26113;SDS011;13966;48.828;9.064;2022-10-16T15:39:17;2.95;;;1.27;;
26113;SDS011;13966;48.828;9.064;2022-10-16T15:41:44;3.67;;;1.30;;
26113;SDS011;13966;48.828;9.064;2022-10-16T15:44:10;6.78;;;1.70;;
26113;SDS011;13966;48.828;9.064;2022-10-16T15:46:36;2.58;;;1.88;;
26113;SDS011;13966;48.828;9.064;2022-10-16T15:49:02;5.15;;;1.65;;
26113;SDS011;13966;48.828;9.064;2022-10-16T15:51:29;5.18;;;1.73;;
26113;SDS011;13966;48.828;9.064;2022-10-16T15:53:57;3.10;;;2.20;;
26113;SDS011;13966;48.828;9.064;2022-10-16T15:56:26;9.02;;;1.90;;
26113;SDS011;13966;48.828;9.064;2022-10-16T15:58:53;8.30;;;1.70;;
26113;SDS011;13966;48.828;9.064;2022-10-16T16:01:19;2.75;;;1.50;;
26113;SDS011;13966;48.828;9.064;2022-10-16T16:03:46;2.72;;;1.88;;
26113;SDS011;13966;48.828;9.064;2022-10-16T16:06:12;4.40;;;1.95;;
26113;SDS011;13966;48.828;9.064;2022-10-16T16:08:39;1.77;;;1.50;;
26113;SDS011;13966;48.828;9.064;2022-10-16T16:11:09;7.40;;;2.00;;
26113;SDS011;13966;48.828;9.064;2022-10-16T16:16:08;4.30;;;2.08;;
26113;SDS011;13966;48.828;9.064;2022-10-16T16:18:34;2.15;;;1.75;;
26113;SDS011;13966;48.828;9.064;2022-10-16T16:21:01;5.72;;;1.95;;
26113;SDS011;13966;48.828;9.064;2022-10-16T16:23:27;2.63;;;1.80;;
26113;SDS011;13966;48.828;9.064;2022-10-16T16:26:53;5.47;;;2.00;;
26113;SDS011;13966;48.828;9.064;2022-10-16T16:28:51;4.50;;;2.00;;
26113;SDS011;13966;48.828;9.064;2022-10-16T16:31:18;5.15;;;2.10;;
26113;SDS011;13966;48.828;9.064;2022-10-16T16:33:44;5.15;;;2.20;;
26113;SDS011;13966;48.828;9.064;2022-10-16T16:36:11;6.30;;;2.15;;
26113;SDS011;13966;48.828;9.064;2022-10-16T16:38:37;7.15;;;2.78;;